VECC/CCU METAR and TAF weather

Enter ICAO airport designator
Station Type Date Time Source
VECC METAR 2022/05/24 12:00 UTC NOAA

VECC 241200Z 00000KT 4200 HZ FEW020 34/24 Q1001 NOSIG


Station Type Date Time Source
VECC Decoded METAR 2022/05/24 12:00 UTC NOAA

Calcutta / Dum Dum, India (VECC) 22-39N 088-27E 6M
May 24, 2022 - 08:00 AM EDT / 2022.05.24 1200 UTC
Wind: Calm:0
Visibility: 2 mile(s):0
Sky conditions: mostly clear
Weather: haze
Temperature: 93 F (34 C)
Heat index: 104.5 F (40.3 C):1
Dew Point: 75 F (24 C)
Relative Humidity: 56%
Pressure (altimeter): 29.56 in. Hg (1001 hPa)
ob: VECC 241200Z 00000KT 4200 HZ FEW020 34/24 Q1001 NOSIG
cycle: 12

Station Type Date Time Source
VECC TAF 2022/05/24 12:43 UTC NOAA

TAF VECC 241100Z 2412/2518 20005KT 3500 HZ SCT018 SCT100
TEMPO 2412/2416 32015G25KT 1500 TSRA SCT015 FEW025CB OVC090
BECMG 2423/2501 00000KT 2500 BR
BECMG 2504/2506 25006KT 4000 HZ
TEMPO 2508/2512 27015G30KT 1500 TSRA SCT015 FEW025CB OVC090
BECMG 2512/2514 14006KT 2800 -RA HZ SCT015 BKN100

Example: see airport list